YBAD weather

Baradine Airport
New South Wales, Australia

Public forecast

Using degrees Celsius for public forecast. Weather courtesy of forecast.io.

Closest aviation weather report (METAR) to Baradine Airport

Closest report is Coonabarabran Airport, 24.4 nm (45.2 km) SSE. Retrieved 2019/12/12 02:00 UTC (56 minutes ago):

YCBB 120200Z AUTO 19011KT 9999 // NCD 31/03 Q1012

Closest aviation forecast (TAF) to Baradine Airport

Forecast is more than 12 hours old.

Closest forecast is Dubbo City Regional Airport, 80.2 nm (148.6 km) SSW. Retrieved 2019/12/11 12:36 UTC (14 hours ago):

TAF YSDU 111032Z 1112/1206 20010KT 8000 -FU NSC BECMG 1114/1116 13008KT 5000 FU SCT010 FM120000 20012KT CAVOK FM120400 23015G25KT CAVOK PROB30 1116/1200 2000 +FU